sensor_id;sensor_type;location;lat;lon;timestamp;temperature;humidity
5808;DHT22;2930;42.678;23.312;2022-10-16T00:01:24;10.30;83.90
5808;DHT22;2930;42.678;23.312;2022-10-16T00:03:50;10.30;84.10
5808;DHT22;2930;42.678;23.312;2022-10-16T00:06:18;10.30;84.00
5808;DHT22;2930;42.678;23.312;2022-10-16T00:08:44;10.20;83.70
5808;DHT22;2930;42.678;23.312;2022-10-16T00:11:15;10.20;83.60
5808;DHT22;2930;42.678;23.312;2022-10-16T00:13:42;10.20;83.90
5808;DHT22;2930;42.678;23.312;2022-10-16T00:16:09;10.20;85.30
5808;DHT22;2930;42.678;23.312;2022-10-16T00:18:35;10.20;86.00
5808;DHT22;2930;42.678;23.312;2022-10-16T00:21:08;10.10;84.60
5808;DHT22;2930;42.678;23.312;2022-10-16T00:23:34;10.10;85.80
5808;DHT22;2930;42.678;23.312;2022-10-16T00:26:05;10.10;86.00
5808;DHT22;2930;42.678;23.312;2022-10-16T00:28:31;10.00;86.10
5808;DHT22;2930;42.678;23.312;2022-10-16T00:30:57;10.00;86.40
5808;DHT22;2930;42.678;23.312;2022-10-16T00:33:23;10.00;86.40
5808;DHT22;2930;42.678;23.312;2022-10-16T00:35:49;9.90;86.30
5808;DHT22;2930;42.678;23.312;2022-10-16T00:38:16;9.90;86.40
5808;DHT22;2930;42.678;23.312;2022-10-16T00:40:41;9.90;86.30
5808;DHT22;2930;42.678;23.312;2022-10-16T00:46:00;9.80;85.30
5808;DHT22;2930;42.678;23.312;2022-10-16T00:48:27;9.70;85.90
5808;DHT22;2930;42.678;23.312;2022-10-16T00:50:53;9.70;86.10
5808;DHT22;2930;42.678;23.312;2022-10-16T00:53:19;9.70;86.10
5808;DHT22;2930;42.678;23.312;2022-10-16T00:55:45;9.70;85.40
5808;DHT22;2930;42.678;23.312;2022-10-16T00:58:11;9.70;86.70
5808;DHT22;2930;42.678;23.312;2022-10-16T01:00:37;9.70;86.20
5808;DHT22;2930;42.678;23.312;2022-10-16T01:03:21;9.70;86.60
5808;DHT22;2930;42.678;23.312;2022-10-16T01:05:52;9.70;86.90
5808;DHT22;2930;42.678;23.312;2022-10-16T01:08:43;9.70;86.90
5808;DHT22;2930;42.678;23.312;2022-10-16T01:11:19;9.60;86.00
5808;DHT22;2930;42.678;23.312;2022-10-16T01:13:52;9.60;86.60
5808;DHT22;2930;42.678;23.312;2022-10-16T01:18:56;9.60;86.60
5808;DHT22;2930;42.678;23.312;2022-10-16T01:21:28;9.60;86.90
5808;DHT22;2930;42.678;23.312;2022-10-16T01:32:20;9.50;87.60
5808;DHT22;2930;42.678;23.312;2022-10-16T01:34:51;9.40;87.00
5808;DHT22;2930;42.678;23.312;2022-10-16T01:37:47;9.40;86.50
5808;DHT22;2930;42.678;23.312;2022-10-16T01:40:13;9.30;85.50
5808;DHT22;2930;42.678;23.312;2022-10-16T01:42:48;9.30;86.30
5808;DHT22;2930;42.678;23.312;2022-10-16T01:45:19;9.30;86.20
5808;DHT22;2930;42.678;23.312;2022-10-16T01:47:46;9.30;86.20
5808;DHT22;2930;42.678;23.312;2022-10-16T01:50:15;9.30;86.30
5808;DHT22;2930;42.678;23.312;2022-10-16T01:52:44;9.30;86.10
5808;DHT22;2930;42.678;23.312;2022-10-16T01:55:16;9.20;85.70
5808;DHT22;2930;42.678;23.312;2022-10-16T01:57:46;9.20;85.70
5808;DHT22;2930;42.678;23.312;2022-10-16T02:00:13;9.20;85.50
5808;DHT22;2930;42.678;23.312;2022-10-16T02:02:42;9.20;85.90
5808;DHT22;2930;42.678;23.312;2022-10-16T02:07:38;9.20;85.90
5808;DHT22;2930;42.678;23.312;2022-10-16T02:10:04;9.20;85.50
5808;DHT22;2930;42.678;23.312;2022-10-16T02:12:32;9.10;85.60
5808;DHT22;2930;42.678;23.312;2022-10-16T02:14:59;9.10;85.60
5808;DHT22;2930;42.678;23.312;2022-10-16T02:17:25;9.10;85.70
5808;DHT22;2930;42.678;23.312;2022-10-16T02:19:53;9.10;85.80
5808;DHT22;2930;42.678;23.312;2022-10-16T02:27:55;9.10;85.70
5808;DHT22;2930;42.678;23.312;2022-10-16T02:33:07;9.10;86.20
5808;DHT22;2930;42.678;23.312;2022-10-16T02:35:34;9.10;86.40
5808;DHT22;2930;42.678;23.312;2022-10-16T02:37:59;9.10;86.50
5808;DHT22;2930;42.678;23.312;2022-10-16T02:40:26;9.00;86.30
5808;DHT22;2930;42.678;23.312;2022-10-16T02:42:53;9.00;86.30
5808;DHT22;2930;42.678;23.312;2022-10-16T02:45:19;9.00;86.30
5808;DHT22;2930;42.678;23.312;2022-10-16T02:47:45;9.00;85.90
5808;DHT22;2930;42.678;23.312;2022-10-16T02:50:11;9.00;86.70
5808;DHT22;2930;42.678;23.312;2022-10-16T02:52:37;9.00;86.90
5808;DHT22;2930;42.678;23.312;2022-10-16T02:55:03;9.00;87.00
5808;DHT22;2930;42.678;23.312;2022-10-16T02:57:28;9.00;87.10
5808;DHT22;2930;42.678;23.312;2022-10-16T02:59:54;9.00;87.40
5808;DHT22;2930;42.678;23.312;2022-10-16T03:02:21;9.00;87.30
5808;DHT22;2930;42.678;23.312;2022-10-16T03:04:46;8.90;87.20
5808;DHT22;2930;42.678;23.312;2022-10-16T03:07:12;8.90;87.00
5808;DHT22;2930;42.678;23.312;2022-10-16T03:09:37;8.90;86.80
5808;DHT22;2930;42.678;23.312;2022-10-16T03:12:03;8.90;86.70
5808;DHT22;2930;42.678;23.312;2022-10-16T03:14:29;8.80;87.10
5808;DHT22;2930;42.678;23.312;2022-10-16T03:16:55;8.80;86.80
5808;DHT22;2930;42.678;23.312;2022-10-16T03:19:20;8.80;86.70
5808;DHT22;2930;42.678;23.312;2022-10-16T03:21:46;8.80;86.70
5808;DHT22;2930;42.678;23.312;2022-10-16T03:24:12;8.70;86.40
5808;DHT22;2930;42.678;23.312;2022-10-16T03:26:38;8.70;86.40
5808;DHT22;2930;42.678;23.312;2022-10-16T03:29:03;8.70;86.80
5808;DHT22;2930;42.678;23.312;2022-10-16T03:31:29;8.70;86.20
5808;DHT22;2930;42.678;23.312;2022-10-16T03:33:55;8.70;86.80
5808;DHT22;2930;42.678;23.312;2022-10-16T03:36:21;8.70;86.80
5808;DHT22;2930;42.678;23.312;2022-10-16T03:38:46;8.60;86.60
5808;DHT22;2930;42.678;23.312;2022-10-16T03:41:12;8.60;87.60
5808;DHT22;2930;42.678;23.312;2022-10-16T03:43:38;8.60;88.50
5808;DHT22;2930;42.678;23.312;2022-10-16T03:46:04;8.60;88.50
5808;DHT22;2930;42.678;23.312;2022-10-16T03:48:29;8.60;87.80
5808;DHT22;2930;42.678;23.312;2022-10-16T03:50:55;8.50;87.40
5808;DHT22;2930;42.678;23.312;2022-10-16T03:53:21;8.50;87.50
5808;DHT22;2930;42.678;23.312;2022-10-16T03:55:47;8.50;87.60
5808;DHT22;2930;42.678;23.312;2022-10-16T03:58:12;8.50;87.70
5808;DHT22;2930;42.678;23.312;2022-10-16T04:00:45;8.50;87.80
5808;DHT22;2930;42.678;23.312;2022-10-16T04:03:11;8.50;88.00
5808;DHT22;2930;42.678;23.312;2022-10-16T04:05:37;8.40;88.50
5808;DHT22;2930;42.678;23.312;2022-10-16T04:08:03;8.40;88.60
5808;DHT22;2930;42.678;23.312;2022-10-16T04:10:29;8.40;88.40
5808;DHT22;2930;42.678;23.312;2022-10-16T04:12:55;8.30;88.40
5808;DHT22;2930;42.678;23.312;2022-10-16T04:15:22;8.20;88.70
5808;DHT22;2930;42.678;23.312;2022-10-16T04:17:48;8.20;88.20
5808;DHT22;2930;42.678;23.312;2022-10-16T04:20:14;8.20;88.00
5808;DHT22;2930;42.678;23.312;2022-10-16T04:22:39;8.10;87.80
5808;DHT22;2930;42.678;23.312;2022-10-16T04:25:05;8.20;87.90
5808;DHT22;2930;42.678;23.312;2022-10-16T04:27:31;8.10;88.00
5808;DHT22;2930;42.678;23.312;2022-10-16T04:29:58;8.10;88.00
5808;DHT22;2930;42.678;23.312;2022-10-16T04:32:23;8.10;88.00
5808;DHT22;2930;42.678;23.312;2022-10-16T04:34:49;8.10;88.00
5808;DHT22;2930;42.678;23.312;2022-10-16T04:37:15;8.10;87.90
5808;DHT22;2930;42.678;23.312;2022-10-16T04:39:40;8.10;88.00
5808;DHT22;2930;42.678;23.312;2022-10-16T04:42:06;8.10;87.90
5808;DHT22;2930;42.678;23.312;2022-10-16T04:44:32;8.10;88.00
5808;DHT22;2930;42.678;23.312;2022-10-16T04:46:58;8.00;87.90
5808;DHT22;2930;42.678;23.312;2022-10-16T04:49:23;8.00;88.00
5808;DHT22;2930;42.678;23.312;2022-10-16T04:51:49;8.00;88.10
5808;DHT22;2930;42.678;23.312;2022-10-16T04:54:15;8.00;88.00
5808;DHT22;2930;42.678;23.312;2022-10-16T04:56:40;8.10;88.00
5808;DHT22;2930;42.678;23.312;2022-10-16T04:59:15;8.00;88.10
5808;DHT22;2930;42.678;23.312;2022-10-16T05:01:41;8.00;88.00
5808;DHT22;2930;42.678;23.312;2022-10-16T05:04:07;8.10;87.90
5808;DHT22;2930;42.678;23.312;2022-10-16T05:06:32;8.10;88.10
5808;DHT22;2930;42.678;23.312;2022-10-16T05:08:58;8.10;88.20
5808;DHT22;2930;42.678;23.312;2022-10-16T05:11:24;8.10;88.60
5808;DHT22;2930;42.678;23.312;2022-10-16T05:13:49;8.10;88.70
5808;DHT22;2930;42.678;23.312;2022-10-16T05:16:15;8.20;88.70
5808;DHT22;2930;42.678;23.312;2022-10-16T05:18:41;8.20;88.50
5808;DHT22;2930;42.678;23.312;2022-10-16T05:21:06;8.20;88.30
5808;DHT22;2930;42.678;23.312;2022-10-16T05:23:32;8.20;88.60
5808;DHT22;2930;42.678;23.312;2022-10-16T05:25:58;8.20;88.60
5808;DHT22;2930;42.678;23.312;2022-10-16T05:28:26;8.20;89.30
5808;DHT22;2930;42.678;23.312;2022-10-16T05:30:52;8.30;89.60
5808;DHT22;2930;42.678;23.312;2022-10-16T05:33:23;8.30;89.40
5808;DHT22;2930;42.678;23.312;2022-10-16T05:35:50;8.30;88.90
5808;DHT22;2930;42.678;23.312;2022-10-16T05:38:17;8.30;89.00
5808;DHT22;2930;42.678;23.312;2022-10-16T05:40:43;8.30;89.00
5808;DHT22;2930;42.678;23.312;2022-10-16T05:43:09;8.30;88.90
5808;DHT22;2930;42.678;23.312;2022-10-16T05:45:34;8.30;88.90
5808;DHT22;2930;42.678;23.312;2022-10-16T05:48:00;8.30;89.10
5808;DHT22;2930;42.678;23.312;2022-10-16T05:50:27;8.40;89.10
5808;DHT22;2930;42.678;23.312;2022-10-16T05:52:52;8.40;89.10
5808;DHT22;2930;42.678;23.312;2022-10-16T05:55:18;8.40;89.00
5808;DHT22;2930;42.678;23.312;2022-10-16T05:57:44;8.50;89.10
5808;DHT22;2930;42.678;23.312;2022-10-16T06:00:10;8.60;89.20
5808;DHT22;2930;42.678;23.312;2022-10-16T06:02:36;8.60;89.20
5808;DHT22;2930;42.678;23.312;2022-10-16T06:05:01;8.70;89.40
5808;DHT22;2930;42.678;23.312;2022-10-16T06:07:27;8.70;89.30
5808;DHT22;2930;42.678;23.312;2022-10-16T06:09:53;8.80;89.50
5808;DHT22;2930;42.678;23.312;2022-10-16T06:12:19;8.80;89.20
5808;DHT22;2930;42.678;23.312;2022-10-16T06:14:46;8.90;89.60
5808;DHT22;2930;42.678;23.312;2022-10-16T06:17:15;8.90;89.70
5808;DHT22;2930;42.678;23.312;2022-10-16T06:19:41;8.90;89.20
5808;DHT22;2930;42.678;23.312;2022-10-16T06:22:06;8.90;89.50
5808;DHT22;2930;42.678;23.312;2022-10-16T06:24:33;9.00;89.60
5808;DHT22;2930;42.678;23.312;2022-10-16T06:26:59;9.10;89.60
5808;DHT22;2930;42.678;23.312;2022-10-16T06:29:24;9.10;89.60
5808;DHT22;2930;42.678;23.312;2022-10-16T06:31:50;9.20;89.90
5808;DHT22;2930;42.678;23.312;2022-10-16T06:34:16;9.30;90.10
5808;DHT22;2930;42.678;23.312;2022-10-16T06:36:42;9.30;90.20
5808;DHT22;2930;42.678;23.312;2022-10-16T06:39:09;9.40;89.90
5808;DHT22;2930;42.678;23.312;2022-10-16T06:41:34;9.50;90.00
5808;DHT22;2930;42.678;23.312;2022-10-16T06:44:01;9.50;89.70
5808;DHT22;2930;42.678;23.312;2022-10-16T06:46:26;9.60;90.00
5808;DHT22;2930;42.678;23.312;2022-10-16T06:48:52;9.70;89.90
5808;DHT22;2930;42.678;23.312;2022-10-16T06:51:23;9.80;89.90
5808;DHT22;2930;42.678;23.312;2022-10-16T06:53:51;9.90;89.50
5808;DHT22;2930;42.678;23.312;2022-10-16T06:56:20;9.90;89.50
5808;DHT22;2930;42.678;23.312;2022-10-16T06:58:46;10.10;89.50
5808;DHT22;2930;42.678;23.312;2022-10-16T07:01:13;10.20;89.50
5808;DHT22;2930;42.678;23.312;2022-10-16T07:03:40;10.30;89.20
5808;DHT22;2930;42.678;23.312;2022-10-16T07:06:08;10.30;89.00
5808;DHT22;2930;42.678;23.312;2022-10-16T07:08:36;10.40;89.60
5808;DHT22;2930;42.678;23.312;2022-10-16T07:11:04;10.60;90.40
5808;DHT22;2930;42.678;23.312;2022-10-16T07:13:33;10.90;90.90
5808;DHT22;2930;42.678;23.312;2022-10-16T07:18:33;11.90;89.60
5808;DHT22;2930;42.678;23.312;2022-10-16T07:21:07;12.60;88.90
5808;DHT22;2930;42.678;23.312;2022-10-16T07:23:34;13.40;88.60
5808;DHT22;2930;42.678;23.312;2022-10-16T07:25:59;14.30;87.70
5808;DHT22;2930;42.678;23.312;2022-10-16T07:28:25;15.20;84.30
5808;DHT22;2930;42.678;23.312;2022-10-16T07:30:51;16.10;80.60
5808;DHT22;2930;42.678;23.312;2022-10-16T07:33:17;16.90;78.40
5808;DHT22;2930;42.678;23.312;2022-10-16T07:35:53;17.60;76.20
5808;DHT22;2930;42.678;23.312;2022-10-16T07:38:19;18.30;73.10
5808;DHT22;2930;42.678;23.312;2022-10-16T07:40:45;19.00;73.40
5808;DHT22;2930;42.678;23.312;2022-10-16T07:43:11;19.70;72.10
5808;DHT22;2930;42.678;23.312;2022-10-16T07:45:37;20.40;70.40
5808;DHT22;2930;42.678;23.312;2022-10-16T07:48:04;21.10;69.40
5808;DHT22;2930;42.678;23.312;2022-10-16T07:50:29;21.80;68.10
5808;DHT22;2930;42.678;23.312;2022-10-16T07:52:55;22.50;65.80
5808;DHT22;2930;42.678;23.312;2022-10-16T07:55:20;23.10;64.70
5808;DHT22;2930;42.678;23.312;2022-10-16T07:57:46;23.70;63.80
5808;DHT22;2930;42.678;23.312;2022-10-16T08:00:12;24.20;62.90
5808;DHT22;2930;42.678;23.312;2022-10-16T08:02:41;24.70;61.80
5808;DHT22;2930;42.678;23.312;2022-10-16T08:05:07;25.10;61.90
5808;DHT22;2930;42.678;23.312;2022-10-16T08:07:33;25.50;61.40
5808;DHT22;2930;42.678;23.312;2022-10-16T08:09:59;26.00;60.20
5808;DHT22;2930;42.678;23.312;2022-10-16T08:12:25;26.40;59.80
5808;DHT22;2930;42.678;23.312;2022-10-16T08:14:51;26.80;59.30
5808;DHT22;2930;42.678;23.312;2022-10-16T08:17:17;27.10;59.30
5808;DHT22;2930;42.678;23.312;2022-10-16T08:19:46;27.50;57.60
5808;DHT22;2930;42.678;23.312;2022-10-16T08:22:13;28.00;56.70
5808;DHT22;2930;42.678;23.312;2022-10-16T08:24:40;28.30;56.50
5808;DHT22;2930;42.678;23.312;2022-10-16T08:27:06;28.50;56.50
5808;DHT22;2930;42.678;23.312;2022-10-16T08:29:32;28.50;56.00
5808;DHT22;2930;42.678;23.312;2022-10-16T08:31:58;28.60;56.80
5808;DHT22;2930;42.678;23.312;2022-10-16T08:34:24;28.80;54.40
5808;DHT22;2930;42.678;23.312;2022-10-16T08:36:49;28.80;53.00
5808;DHT22;2930;42.678;23.312;2022-10-16T08:39:15;28.90;54.20
5808;DHT22;2930;42.678;23.312;2022-10-16T08:49:42;30.10;53.80
5808;DHT22;2930;42.678;23.312;2022-10-16T08:52:13;30.50;53.00
5808;DHT22;2930;42.678;23.312;2022-10-16T08:54:45;30.80;51.90
5808;DHT22;2930;42.678;23.312;2022-10-16T08:57:15;31.30;51.90
5808;DHT22;2930;42.678;23.312;2022-10-16T08:59:42;31.50;49.30
5808;DHT22;2930;42.678;23.312;2022-10-16T09:02:34;31.60;51.50
5808;DHT22;2930;42.678;23.312;2022-10-16T09:10:47;31.80;49.90
5808;DHT22;2930;42.678;23.312;2022-10-16T09:13:26;31.90;47.40
5808;DHT22;2930;42.678;23.312;2022-10-16T09:21:21;32.00;46.90
5808;DHT22;2930;42.678;23.312;2022-10-16T09:23:49;31.90;48.60
5808;DHT22;2930;42.678;23.312;2022-10-16T09:26:16;32.00;47.40
5808;DHT22;2930;42.678;23.312;2022-10-16T09:28:45;32.00;47.40
5808;DHT22;2930;42.678;23.312;2022-10-16T09:31:21;31.80;44.60
5808;DHT22;2930;42.678;23.312;2022-10-16T09:33:57;31.80;48.70
5808;DHT22;2930;42.678;23.312;2022-10-16T09:36:24;32.00;48.00
5808;DHT22;2930;42.678;23.312;2022-10-16T09:39:05;32.20;45.70
5808;DHT22;2930;42.678;23.312;2022-10-16T09:41:33;32.50;48.40
5808;DHT22;2930;42.678;23.312;2022-10-16T09:44:01;32.70;48.10
5808;DHT22;2930;42.678;23.312;2022-10-16T09:51:45;33.40;47.70
5808;DHT22;2930;42.678;23.312;2022-10-16T09:54:14;33.70;46.50
5808;DHT22;2930;42.678;23.312;2022-10-16T09:56:40;34.00;47.20
5808;DHT22;2930;42.678;23.312;2022-10-16T09:59:23;34.30;47.00
5808;DHT22;2930;42.678;23.312;2022-10-16T10:01:58;34.60;44.60
5808;DHT22;2930;42.678;23.312;2022-10-16T10:04:41;34.60;44.40
5808;DHT22;2930;42.678;23.312;2022-10-16T10:07:18;34.40;46.70
5808;DHT22;2930;42.678;23.312;2022-10-16T10:09:46;34.50;46.10
5808;DHT22;2930;42.678;23.312;2022-10-16T10:12:20;34.70;46.90
5808;DHT22;2930;42.678;23.312;2022-10-16T10:14:51;35.10;47.40
5808;DHT22;2930;42.678;23.312;2022-10-16T10:17:20;35.40;41.60
5808;DHT22;2930;42.678;23.312;2022-10-16T10:19:58;35.20;42.50
5808;DHT22;2930;42.678;23.312;2022-10-16T10:22:44;35.00;45.60
5808;DHT22;2930;42.678;23.312;2022-10-16T10:28:07;35.10;41.30
5808;DHT22;2930;42.678;23.312;2022-10-16T10:33:45;35.00;44.50
5808;DHT22;2930;42.678;23.312;2022-10-16T10:36:25;34.90;42.00
5808;DHT22;2930;42.678;23.312;2022-10-16T10:38:59;35.00;41.30
5808;DHT22;2930;42.678;23.312;2022-10-16T10:44:45;34.60;44.60
5808;DHT22;2930;42.678;23.312;2022-10-16T10:53:21;34.80;42.10
5808;DHT22;2930;42.678;23.312;2022-10-16T10:58:40;35.00;42.30
5808;DHT22;2930;42.678;23.312;2022-10-16T11:06:30;34.70;40.00
5808;DHT22;2930;42.678;23.312;2022-10-16T11:09:11;34.70;42.10
5808;DHT22;2930;42.678;23.312;2022-10-16T11:11:47;34.70;42.50
5808;DHT22;2930;42.678;23.312;2022-10-16T11:14:20;34.70;41.90
5808;DHT22;2930;42.678;23.312;2022-10-16T11:17:18;34.70;43.70
5808;DHT22;2930;42.678;23.312;2022-10-16T11:19:49;34.80;39.20
5808;DHT22;2930;42.678;23.312;2022-10-16T11:30:25;33.80;40.30
5808;DHT22;2930;42.678;23.312;2022-10-16T11:37:59;34.00;41.00
5808;DHT22;2930;42.678;23.312;2022-10-16T11:40:32;33.90;40.70
5808;DHT22;2930;42.678;23.312;2022-10-16T11:45:49;34.20;41.70
5808;DHT22;2930;42.678;23.312;2022-10-16T11:48:18;34.10;42.40
5808;DHT22;2930;42.678;23.312;2022-10-16T11:50:57;34.00;42.10
5808;DHT22;2930;42.678;23.312;2022-10-16T11:56:13;34.00;40.30
5808;DHT22;2930;42.678;23.312;2022-10-16T11:59:06;34.00;40.70
5808;DHT22;2930;42.678;23.312;2022-10-16T12:01:47;34.10;43.40
5808;DHT22;2930;42.678;23.312;2022-10-16T12:07:24;34.30;39.60
5808;DHT22;2930;42.678;23.312;2022-10-16T12:09:53;34.10;39.30
5808;DHT22;2930;42.678;23.312;2022-10-16T12:12:38;33.50;40.20
5808;DHT22;2930;42.678;23.312;2022-10-16T12:15:28;33.30;40.60
5808;DHT22;2930;42.678;23.312;2022-10-16T12:17:54;33.30;41.00
5808;DHT22;2930;42.678;23.312;2022-10-16T12:20:40;33.20;40.80
5808;DHT22;2930;42.678;23.312;2022-10-16T12:23:20;33.00;40.70
5808;DHT22;2930;42.678;23.312;2022-10-16T12:25:54;33.00;41.40
5808;DHT22;2930;42.678;23.312;2022-10-16T12:28:22;33.10;42.30
5808;DHT22;2930;42.678;23.312;2022-10-16T12:31:06;33.10;41.90
5808;DHT22;2930;42.678;23.312;2022-10-16T12:33:34;33.20;41.40
5808;DHT22;2930;42.678;23.312;2022-10-16T12:36:08;33.30;41.50
5808;DHT22;2930;42.678;23.312;2022-10-16T12:41:06;33.30;40.90
5808;DHT22;2930;42.678;23.312;2022-10-16T12:43:42;33.40;42.00
5808;DHT22;2930;42.678;23.312;2022-10-16T12:48:34;33.10;41.00
5808;DHT22;2930;42.678;23.312;2022-10-16T13:02:49;33.10;42.30
5808;DHT22;2930;42.678;23.312;2022-10-16T13:05:56;33.00;43.40
5808;DHT22;2930;42.678;23.312;2022-10-16T13:11:16;32.50;44.20
5808;DHT22;2930;42.678;23.312;2022-10-16T13:16:54;32.00;42.40
5808;DHT22;2930;42.678;23.312;2022-10-16T13:25:19;31.40;43.00
5808;DHT22;2930;42.678;23.312;2022-10-16T13:28:00;31.30;42.50
5808;DHT22;2930;42.678;23.312;2022-10-16T13:30:29;31.10;42.10
5808;DHT22;2930;42.678;23.312;2022-10-16T13:33:06;31.00;42.20
5808;DHT22;2930;42.678;23.312;2022-10-16T13:35:35;30.80;42.20
5808;DHT22;2930;42.678;23.312;2022-10-16T13:38:11;30.70;42.50
5808;DHT22;2930;42.678;23.312;2022-10-16T13:40:58;30.50;42.80
5808;DHT22;2930;42.678;23.312;2022-10-16T13:43:35;30.30;42.70
5808;DHT22;2930;42.678;23.312;2022-10-16T13:46:25;30.20;43.70
5808;DHT22;2930;42.678;23.312;2022-10-16T13:49:17;30.20;45.40
5808;DHT22;2930;42.678;23.312;2022-10-16T13:52:03;29.90;42.70
5808;DHT22;2930;42.678;23.312;2022-10-16T13:54:34;29.70;43.60
5808;DHT22;2930;42.678;23.312;2022-10-16T13:57:06;29.70;43.50
5808;DHT22;2930;42.678;23.312;2022-10-16T13:59:34;29.60;44.10
5808;DHT22;2930;42.678;23.312;2022-10-16T14:02:05;29.30;44.00
5808;DHT22;2930;42.678;23.312;2022-10-16T14:04:33;29.10;43.90
5808;DHT22;2930;42.678;23.312;2022-10-16T14:06:59;29.10;44.20
5808;DHT22;2930;42.678;23.312;2022-10-16T14:09:29;28.90;43.80
5808;DHT22;2930;42.678;23.312;2022-10-16T14:12:07;28.80;44.10
5808;DHT22;2930;42.678;23.312;2022-10-16T14:14:51;28.80;44.40
5808;DHT22;2930;42.678;23.312;2022-10-16T14:17:26;28.70;45.40
5808;DHT22;2930;42.678;23.312;2022-10-16T14:19:55;28.60;43.50
5808;DHT22;2930;42.678;23.312;2022-10-16T14:22:28;28.60;44.70
5808;DHT22;2930;42.678;23.312;2022-10-16T14:24:55;28.30;43.90
5808;DHT22;2930;42.678;23.312;2022-10-16T14:27:33;28.00;44.40
5808;DHT22;2930;42.678;23.312;2022-10-16T14:30:14;27.70;43.80
5808;DHT22;2930;42.678;23.312;2022-10-16T14:32:41;27.50;44.00
5808;DHT22;2930;42.678;23.312;2022-10-16T14:35:26;27.20;44.50
5808;DHT22;2930;42.678;23.312;2022-10-16T14:37:54;27.00;45.00
5808;DHT22;2930;42.678;23.312;2022-10-16T14:40:24;26.80;45.20
5808;DHT22;2930;42.678;23.312;2022-10-16T14:42:50;26.70;45.60
5808;DHT22;2930;42.678;23.312;2022-10-16T14:45:20;26.40;45.80
5808;DHT22;2930;42.678;23.312;2022-10-16T14:47:49;26.20;45.60
5808;DHT22;2930;42.678;23.312;2022-10-16T14:50:15;26.10;45.80
5808;DHT22;2930;42.678;23.312;2022-10-16T14:52:41;26.00;46.80
5808;DHT22;2930;42.678;23.312;2022-10-16T14:55:10;25.70;46.10
5808;DHT22;2930;42.678;23.312;2022-10-16T14:57:37;25.50;46.20
5808;DHT22;2930;42.678;23.312;2022-10-16T15:00:13;25.20;47.10
5808;DHT22;2930;42.678;23.312;2022-10-16T15:02:40;25.10;47.20
5808;DHT22;2930;42.678;23.312;2022-10-16T15:05:19;24.60;47.20
5808;DHT22;2930;42.678;23.312;2022-10-16T15:07:45;24.30;48.60
5808;DHT22;2930;42.678;23.312;2022-10-16T15:10:13;24.00;48.10
5808;DHT22;2930;42.678;23.312;2022-10-16T15:12:39;23.80;49.20
5808;DHT22;2930;42.678;23.312;2022-10-16T15:17:53;22.90;49.50
5808;DHT22;2930;42.678;23.312;2022-10-16T15:20:24;22.60;49.30
5808;DHT22;2930;42.678;23.312;2022-10-16T15:22:50;22.30;50.10
5808;DHT22;2930;42.678;23.312;2022-10-16T15:27:53;21.90;50.20
5808;DHT22;2930;42.678;23.312;2022-10-16T15:30:18;21.60;51.00
5808;DHT22;2930;42.678;23.312;2022-10-16T15:32:44;21.30;51.50
5808;DHT22;2930;42.678;23.312;2022-10-16T15:35:10;21.00;52.10
5808;DHT22;2930;42.678;23.312;2022-10-16T15:37:35;20.70;51.90
5808;DHT22;2930;42.678;23.312;2022-10-16T15:40:01;20.50;52.30
5808;DHT22;2930;42.678;23.312;2022-10-16T15:42:27;20.20;52.60
5808;DHT22;2930;42.678;23.312;2022-10-16T15:44:53;20.00;53.00
5808;DHT22;2930;42.678;23.312;2022-10-16T15:47:19;19.80;53.40
5808;DHT22;2930;42.678;23.312;2022-10-16T15:49:44;19.50;53.50
5808;DHT22;2930;42.678;23.312;2022-10-16T15:52:11;19.30;53.80
5808;DHT22;2930;42.678;23.312;2022-10-16T15:54:37;19.10;53.80
5808;DHT22;2930;42.678;23.312;2022-10-16T15:57:02;18.90;54.10
5808;DHT22;2930;42.678;23.312;2022-10-16T15:59:28;18.80;54.20
5808;DHT22;2930;42.678;23.312;2022-10-16T16:01:54;18.70;54.40
5808;DHT22;2930;42.678;23.312;2022-10-16T16:04:20;18.40;53.70
5808;DHT22;2930;42.678;23.312;2022-10-16T16:06:45;18.30;54.40
5808;DHT22;2930;42.678;23.312;2022-10-16T16:09:12;18.20;54.80
5808;DHT22;2930;42.678;23.312;2022-10-16T16:11:39;18.10;53.90
5808;DHT22;2930;42.678;23.312;2022-10-16T16:14:11;18.00;55.60
5808;DHT22;2930;42.678;23.312;2022-10-16T16:16:38;17.90;55.90
5808;DHT22;2930;42.678;23.312;2022-10-16T16:19:05;17.80;56.00
5808;DHT22;2930;42.678;23.312;2022-10-16T16:21:32;17.70;55.90
5808;DHT22;2930;42.678;23.312;2022-10-16T16:23:58;17.60;56.10
5808;DHT22;2930;42.678;23.312;2022-10-16T16:26:28;17.50;56.30
5808;DHT22;2930;42.678;23.312;2022-10-16T16:28:58;17.40;56.60
5808;DHT22;2930;42.678;23.312;2022-10-16T16:31:25;17.30;56.20
5808;DHT22;2930;42.678;23.312;2022-10-16T16:33:51;17.20;55.80
5808;DHT22;2930;42.678;23.312;2022-10-16T16:36:17;17.00;55.00
5808;DHT22;2930;42.678;23.312;2022-10-16T16:38:44;16.90;54.50
5808;DHT22;2930;42.678;23.312;2022-10-16T16:43:38;16.80;57.30
5808;DHT22;2930;42.678;23.312;2022-10-16T16:46:04;16.80;56.30
5808;DHT22;2930;42.678;23.312;2022-10-16T16:48:29;16.70;55.50
5808;DHT22;2930;42.678;23.312;2022-10-16T16:50:56;16.70;57.10
5808;DHT22;2930;42.678;23.312;2022-10-16T16:53:22;16.60;56.50
5808;DHT22;2930;42.678;23.312;2022-10-16T16:55:48;16.50;56.90
5808;DHT22;2930;42.678;23.312;2022-10-16T16:58:14;16.50;56.70
5808;DHT22;2930;42.678;23.312;2022-10-16T17:00:46;16.50;57.30
5808;DHT22;2930;42.678;23.312;2022-10-16T17:03:12;16.40;57.50
5808;DHT22;2930;42.678;23.312;2022-10-16T17:05:37;16.40;57.40
5808;DHT22;2930;42.678;23.312;2022-10-16T17:08:06;16.30;57.90
5808;DHT22;2930;42.678;23.312;2022-10-16T17:10:32;16.30;58.60
5808;DHT22;2930;42.678;23.312;2022-10-16T17:12:57;16.20;58.00
5808;DHT22;2930;42.678;23.312;2022-10-16T17:15:23;16.20;57.80
5808;DHT22;2930;42.678;23.312;2022-10-16T17:17:49;16.10;59.10
5808;DHT22;2930;42.678;23.312;2022-10-16T17:20:15;16.10;59.10
5808;DHT22;2930;42.678;23.312;2022-10-16T17:22:40;16.00;58.80
5808;DHT22;2930;42.678;23.312;2022-10-16T17:25:06;16.00;58.80
5808;DHT22;2930;42.678;23.312;2022-10-16T17:27:33;15.90;61.50
5808;DHT22;2930;42.678;23.312;2022-10-16T17:30:00;15.90;61.60
5808;DHT22;2930;42.678;23.312;2022-10-16T17:32:26;15.80;62.20
5808;DHT22;2930;42.678;23.312;2022-10-16T17:34:51;15.70;62.30
5808;DHT22;2930;42.678;23.312;2022-10-16T17:37:17;15.60;62.20
5808;DHT22;2930;42.678;23.312;2022-10-16T17:39:43;15.40;61.60
5808;DHT22;2930;42.678;23.312;2022-10-16T17:42:08;15.40;61.60
5808;DHT22;2930;42.678;23.312;2022-10-16T17:44:34;15.30;62.10
5808;DHT22;2930;42.678;23.312;2022-10-16T17:47:00;15.20;61.90
5808;DHT22;2930;42.678;23.312;2022-10-16T17:49:25;15.10;62.60
5808;DHT22;2930;42.678;23.312;2022-10-16T17:51:52;15.10;62.40
5808;DHT22;2930;42.678;23.312;2022-10-16T17:54:19;15.00;63.00
5808;DHT22;2930;42.678;23.312;2022-10-16T17:56:45;14.90;61.50
5808;DHT22;2930;42.678;23.312;2022-10-16T17:59:12;14.90;62.90
5808;DHT22;2930;42.678;23.312;2022-10-16T18:01:38;14.80;64.20
5808;DHT22;2930;42.678;23.312;2022-10-16T18:04:12;14.70;64.30
5808;DHT22;2930;42.678;23.312;2022-10-16T18:06:40;14.60;64.20
5808;DHT22;2930;42.678;23.312;2022-10-16T18:09:08;14.50;63.40
5808;DHT22;2930;42.678;23.312;2022-10-16T18:11:34;14.50;64.60
5808;DHT22;2930;42.678;23.312;2022-10-16T18:14:00;14.40;65.40
5808;DHT22;2930;42.678;23.312;2022-10-16T18:16:27;14.30;64.90